ADDS METAR Data INFO
IDs: Format: Raw Decoded Include TAF

Data at: 0901 UTC 20 Oct 2017

KTMA 200855Z AUTO 00000KT 10SM CLR 12/12 A3021 RMK AO2 T01210121
KTMA 200835Z AUTO 00000KT 10SM CLR 12/12 A3020 RMK AO2 T01220122
KTMA 200815Z AUTO 00000KT 10SM CLR 12/12 A3020 RMK AO2 T01190119
KTMA 200755Z AUTO 00000KT 10SM CLR 13/12 A3020 RMK AO2 T01250121
KTMA 200735Z AUTO 00000KT 10SM CLR 14/12 A3020 RMK AO2 T01360120
KTMA 200715Z AUTO 00000KT 10SM CLR 14/12 A3020 RMK AO2 T01380120
KTMA 200655Z AUTO 02003KT 10SM CLR 14/12 A3020 RMK AO2 T01380122
KTMA 200635Z AUTO 00000KT 10SM CLR 14/13 A3021 RMK AO2 T01360125
KTMA 200615Z AUTO 03003KT 10SM CLR 13/13 A3021 RMK AO2 T01290129
KTMA 200555Z AUTO 00000KT 10SM CLR 14/13 A3021 RMK AO2 T01360125
KTMA 200535Z AUTO 00000KT 10SM CLR 14/12 A3021 RMK AO2 T01360122
KTMA 200515Z AUTO 00000KT 10SM CLR 14/13 A3021 RMK AO2 T01420127
KTMA 200455Z AUTO 00000KT 10SM CLR 14/13 A3022 RMK AO2 T01420128
KTMA 200435Z AUTO 00000KT 10SM CLR 15/13 A3022 RMK AO2 T01450128
KTMA 200415Z AUTO 00000KT 10SM CLR 15/13 A3022 RMK AO2 T01490126
KTMA 200355Z AUTO 00000KT 10SM CLR 15/13 A3022 RMK AO2 T01510126
KTMA 200335Z AUTO 00000KT 10SM CLR 15/13 A3022 RMK AO2 T01510130
KTMA 200315Z AUTO 00000KT 10SM CLR 15/13 A3022 RMK AO2 T01520129
KTMA 200255Z AUTO 00000KT 10SM CLR 16/13 A3021 RMK AO2 T01550134
KTMA 200235Z AUTO 00000KT 10SM CLR 16/13 A3021 RMK AO2 T01580129
KTMA 200215Z AUTO 00000KT 10SM CLR 16/14 A3021 RMK AO2 T01620135
KTMA 200155Z AUTO 00000KT 10SM CLR 17/13 A3020 RMK AO2 T01720131
KTMA 200135Z AUTO 00000KT 10SM CLR 17/13 A3020 RMK AO2 T01650132
KTMA 200115Z AUTO 00000KT 10SM CLR 17/14 A3020 RMK AO2 T01660138
KTMA 200055Z AUTO 00000KT 10SM CLR 17/13 A3019 RMK AO2 T01740132
KTMA 200035Z AUTO 00000KT 10SM CLR 18/14 A3019 RMK AO2 T01780137
KTMA 200015Z AUTO 00000KT 10SM CLR 19/14 A3019 RMK AO2 T01850136
KTMA 192355Z AUTO 00000KT 10SM CLR 19/14 A3019 RMK AO2 T01930140
KTMA 192335Z AUTO 00000KT 10SM CLR 20/14 A3018 RMK AO2 T01970141
KTMA 192315Z AUTO 00000KT 10SM CLR 21/14 A3018 RMK AO2 T02110138
KTMA 192255Z AUTO 03003KT 10SM CLR 23/13 A3017 RMK AO2 T02320130
KTMA 192235Z AUTO 03003KT 10SM CLR 24/13 A3017 RMK AO2 T02430130
KTMA 192215Z AUTO 03004KT 10SM CLR 25/13 A3017 RMK AO2 T02510130
KTMA 192155Z AUTO 04004KT 10SM CLR 26/14 A3017 RMK AO2 T02560135
KTMA 192135Z AUTO 03006KT 10SM CLR 26/14 A3016 RMK AO2 T02600136
KTMA 192115Z AUTO 05006KT 10SM CLR 26/14 A3016 RMK AO2 T02620135
KTMA 192055Z AUTO 04006KT 10SM CLR 27/14 A3016 RMK AO2 T02650135
KTMA 192035Z AUTO 02004KT 10SM CLR 26/14 A3017 RMK AO2 T02640135
KTMA 192015Z AUTO 03005KT 10SM CLR 26/13 A3017 RMK AO2 T02620134
KTMA 191955Z AUTO 04008KT 10SM CLR 26/13 A3017 RMK AO2 T02630133
KTMA 191935Z AUTO 08004KT 10SM CLR 26/13 A3017 RMK AO2 T02630134
KTMA 191915Z AUTO 05007KT 10SM CLR 26/13 A3018 RMK AO2 T02640132
KTMA 191855Z AUTO 36005G15KT 10SM CLR 26/13 A3019 RMK AO2 T02590126
KTMA 191835Z AUTO 02005KT 10SM CLR 26/13 A3020 RMK AO2 T02580128
KTMA 191815Z AUTO 02006G14KT 10SM CLR 26/12 A3020 RMK AO2 T02550123
KTMA 191755Z AUTO 02008KT 10SM CLR 26/12 A3022 RMK AO2 T02560124
KTMA 191735Z AUTO 08007KT 10SM CLR 25/12 A3023 RMK AO2 T02510124
KTMA 191715Z AUTO 04009G15KT 10SM CLR 25/13 A3024 RMK AO2 T02470125
KTMA 191655Z AUTO 06005KT 10SM CLR 24/13 A3025 RMK AO2 T02440132
KTMA 191635Z AUTO 04010KT 10SM CLR 24/13 A3026 RMK AO2 T02360131
KTMA 191615Z AUTO 06008G14KT 10SM SCT041 24/13 A3026 RMK AO2 T02370133
KTMA 191555Z AUTO 07007KT 10SM CLR 23/14 A3027 RMK AO2 T02320135
KTMA 191535Z AUTO 05010KT 10SM CLR 22/13 A3027 RMK AO2 T02240129
KTMA 191515Z AUTO 07009KT 10SM CLR 22/13 A3027 RMK AO2 T02180129
KTMA 191435Z AUTO 05007KT 020V090 10SM CLR 20/13 A3027 RMK AO2 T01980130
KTMA 191415Z AUTO 05007KT 10SM CLR 18/13 A3026 RMK AO2 T01840129
KTMA 191355Z AUTO 03005KT 10SM CLR 17/13 A3025 RMK AO2 T01730129
KTMA 191335Z AUTO 03005KT 10SM CLR 16/13 A3025 RMK AO2 T01640126
KTMA 191315Z AUTO 04005KT 10SM CLR 16/13 A3024 RMK AO2 T01570126
KTMA 191255Z AUTO 05005KT 10SM CLR 15/12 A3023 RMK AO2 T01490123
KTMA 191235Z AUTO 06005KT 10SM CLR 14/12 A3023 RMK AO2 T01420120
KTMA 191215Z AUTO 03003KT 10SM CLR 14/12 A3022 RMK AO2 T01350118
KTMA 191155Z AUTO 04004KT 10SM CLR 13/12 A3022 RMK AO2 T01320117
KTMA 191135Z AUTO 04004KT 10SM CLR 13/12 A3021 RMK AO2 T01310117
KTMA 191115Z AUTO 04004KT 10SM CLR 13/12 A3021 RMK AO2 T01330118
KTMA 191055Z AUTO 05003KT 10SM CLR 13/12 A3021 RMK AO2 T01330119
KTMA 191035Z AUTO 04003KT 10SM CLR 13/12 A3020 RMK AO2 T01320120
KTMA 191015Z AUTO 02003KT 10SM CLR 13/12 A3020 RMK AO2 T01330122
KTMA 190955Z AUTO 00000KT 10SM CLR 14/12 A3020 RMK AO2 T01350121
KTMA 190935Z AUTO 04003KT 10SM CLR 14/12 A3020 RMK AO2 T01350121
KTMA 190915Z AUTO 00000KT 10SM CLR 14/12 A3020 RMK AO2 T01360121
KTMA 190855Z AUTO 05004KT 10SM CLR 14/12 A3020 RMK AO2 T01380121
KTMA 190835Z AUTO 04003KT 10SM CLR 14/12 A3019 RMK AO2 T01370121
KTMA 190815Z AUTO 05003KT 10SM CLR 14/12 A3020 RMK AO2 T01370120
KTMA 190755Z AUTO 04003KT 10SM CLR 14/12 A3021 RMK AO2 T01400120
KTMA 190735Z AUTO 00000KT 10SM CLR 14/12 A3021 RMK AO2 T01400120
KTMA 190715Z AUTO 00000KT 10SM CLR 14/12 A3020 RMK AO2 T01420119
KTMA 190655Z AUTO 00000KT 10SM CLR 14/12 A3021 RMK AO2 T01440117
KTMA 190635Z AUTO 05003KT 10SM CLR 15/12 A3021 RMK AO2 T01450117
KTMA 190615Z AUTO 00000KT 10SM CLR 15/12 A3021 RMK AO2 T01450115
KTMA 190555Z AUTO 00000KT 10SM CLR 15/12 A3022 RMK AO2 T01470115
KTMA 190535Z AUTO 00000KT 10SM CLR 15/11 A3023 RMK AO2 T01470113
KTMA 190515Z AUTO 00000KT 10SM CLR 15/11 A3023 RMK AO2 T01480112
KTMA 190455Z AUTO 00000KT 10SM CLR 15/11 A3023 RMK AO2 T01500111
KTMA 190435Z AUTO 00000KT 10SM CLR 15/11 A3023 RMK AO2 T01510110
KTMA 190415Z AUTO 00000KT 10SM CLR 16/11 A3024 RMK AO2 T01560110
KTMA 190355Z AUTO 00000KT 10SM CLR 16/11 A3025 RMK AO2 T01600108
KTMA 190335Z AUTO 00000KT 10SM CLR 16/11 A3025 RMK AO2 T01630107
KTMA 190315Z AUTO 05003KT 10SM CLR 16/11 A3025 RMK AO2 T01640108
KTMA 190255Z AUTO 05003KT 10SM CLR 17/11 A3024 RMK AO2 T01670110
KTMA 190235Z AUTO 04003KT 10SM CLR 17/11 A3024 RMK AO2 T01700112
KTMA 190215Z AUTO 04003KT 10SM CLR 17/12 A3024 RMK AO2 T01720115
KTMA 190155Z AUTO 04003KT 10SM CLR 18/12 A3024 RMK AO2 T01760117
KTMA 190135Z AUTO 04004KT 10SM CLR 18/12 A3024 RMK AO2 T01800120
KTMA 190115Z AUTO 04003KT 10SM CLR 18/12 A3023 RMK AO2 T01830122
KTMA 190055Z AUTO 04003KT 10SM CLR 19/13 A3023 RMK AO2 T01850126
KTMA 190035Z AUTO 03004KT 10SM CLR 19/13 A3023 RMK AO2 T01880130
KTMA 190015Z AUTO 03003KT 10SM CLR 19/13 A3022 RMK AO2 T01890131
KTMA 182355Z AUTO 00000KT 10SM CLR 20/13 A3022 RMK AO2 T01950132
KTMA 182335Z AUTO 03003KT 10SM CLR 20/13 A3021 RMK AO2 T01970133
KTMA 182315Z AUTO 03003KT 10SM CLR 21/13 A3020 RMK AO2 T02060134
KTMA 182255Z AUTO 05003KT 10SM CLR 22/14 A3020 RMK AO2 T02150135
KTMA 182235Z AUTO 05003KT 10SM CLR 22/13 A3020 RMK AO2 T02240134
KTMA 182215Z AUTO 06003KT 10SM CLR 23/13 A3020 RMK AO2 T02310132
KTMA 182155Z AUTO 08005KT 10SM CLR 24/13 A3019 RMK AO2 T02370132
KTMA 182135Z AUTO 08005KT 10SM CLR 24/13 A3019 RMK AO2 T02400131
KTMA 182115Z AUTO 05005KT 10SM CLR 24/13 A3019 RMK AO2 T02410129